Time;durP1;ratioP1;P1;durP2;ratioP2;P2;SDS_P1;SDS_P2;PMS_P1;PMS_P2;Temp;Humidity;BMP_temperature;BMP_pressure;BME280_temperature;BME280_humidity;BME280_pressure;Samples;Min_cycle;Max_cycle;Signal;HPM_P1;HPM_P2
2022/12/03 00:01:55;;;;;;;38.95;16.58;;;;;;;2.77;100.00;101875.69;4997902;28;20041;-76
2022/12/03 00:04:20;;;;;;;29.13;15.43;;;;;;;2.29;100.00;101783.28;5006240;28;20119;-76
2022/12/03 00:06:45;;;;;;;32.75;18.55;;;;;;;2.60;100.00;101879.91;5004739;28;20042;-76
2022/12/03 00:09:11;;;;;;;41.88;18.10;;;;;;;2.69;100.00;101855.44;4999920;28;20530;-77
2022/12/03 00:11:36;;;;;;;32.47;18.52;;;;;;;1.96;100.00;101719.25;5001206;28;20375;-76
2022/12/03 00:14:02;;;;;;;29.52;16.20;;;;;;;2.78;100.00;101874.88;5005731;28;20038;-79
2022/12/03 00:16:27;;;;;;;43.33;17.48;;;;;;;2.06;100.00;101750.91;5002656;28;20050;-75
2022/12/03 00:18:53;;;;;;;29.77;16.27;;;;;;;2.05;100.00;101751.72;5005377;28;20509;-77
2022/12/03 00:21:18;;;;;;;31.40;13.38;;;;;;;2.23;100.00;101873.56;5000792;28;20061;-76
2022/12/03 00:23:44;;;;;;;29.75;18.40;;;;;;;1.09;100.00;101725.44;5003284;28;20041;-76
2022/12/03 00:26:09;;;;;;;34.97;14.43;;;;;;;1.92;100.00;101872.56;5004106;28;20044;-78
2022/12/03 00:28:34;;;;;;;23.83;13.38;;;;;;;1.75;100.00;101854.34;5002207;28;20064;-76
2022/12/03 00:31:00;;;;;;;29.02;12.40;;;;;;;1.86;100.00;101866.25;4994950;28;20054;-77
2022/12/03 00:33:25;;;;;;;32.03;16.92;;;;;;;2.33;100.00;101898.28;4996684;28;20054;-77
2022/12/03 00:35:51;;;;;;;29.70;16.52;;;;;;;2.29;100.00;101862.66;5003499;28;20056;-76
2022/12/03 00:38:16;;;;;;;27.38;15.60;;;;;;;1.86;100.00;101875.72;5004649;28;20034;-78
2022/12/03 00:40:42;;;;;;;28.35;15.40;;;;;;;2.31;100.00;101873.97;5002108;28;20050;-78
2022/12/03 00:43:07;;;;;;;28.50;15.38;;;;;;;2.50;100.00;101870.72;5002166;28;20054;-78
2022/12/03 00:45:33;;;;;;;30.02;14.93;;;;;;;1.49;100.00;101788.16;5002467;28;20086;-78
2022/12/03 00:48:01;;;;;;;36.70;18.25;;;;;;;2.12;100.00;101877.22;4999934;28;20058;-77
2022/12/03 00:50:26;;;;;;;28.70;15.60;;;;;;;1.39;100.00;101726.38;5004479;28;20073;-80
2022/12/03 00:52:52;;;;;;;40.95;17.70;;;;;;;2.41;100.00;101875.41;5006797;28;20037;-76
2022/12/03 00:55:17;;;;;;;28.45;14.90;;;;;;;1.94;100.00;101776.09;5001985;28;20046;-76
2022/12/03 00:57:43;;;;;;;29.40;15.88;;;;;;;2.42;100.00;101884.97;5004096;28;20050;-75
2022/12/03 01:00:09;;;;;;;26.90;17.00;;;;;;;2.27;100.00;101841.88;5004913;28;20498;-76
2022/12/03 01:02:34;;;;;;;27.00;15.98;;;;;;;2.64;100.00;101879.28;5005289;28;20065;-78
2022/12/03 01:05:01;;;;;;;28.20;13.82;;;;;;;2.11;100.00;101857.31;5001858;28;20081;-75
2022/12/03 01:07:26;;;;;;;31.67;15.15;;;;;;;1.77;100.00;101745.78;5002608;28;20042;-76
2022/12/03 01:09:52;;;;;;;28.20;15.27;;;;;;;1.99;100.00;101791.88;4998154;28;20046;-75
2022/12/03 01:12:17;;;;;;;32.33;15.25;;;;;;;1.68;100.00;101722.84;4995877;28;20482;-75
2022/12/03 01:14:43;;;;;;;31.73;16.73;;;;;;;2.59;100.00;101880.72;5003420;28;20053;-76
2022/12/03 01:17:09;;;;;;;27.65;17.40;;;;;;;2.69;100.00;101881.34;5002641;28;20474;-76
2022/12/03 01:19:34;;;;;;;30.05;13.95;;;;;;;2.19;100.00;101793.91;5005945;28;20556;-76
2022/12/03 01:22:00;;;;;;;33.40;18.08;;;;;;;2.56;100.00;101897.00;5004711;28;20057;-76
2022/12/03 01:24:26;;;;;;;26.55;15.40;;;;;;;2.52;100.00;101872.59;5006881;28;20046;-75
2022/12/03 01:26:51;;;;;;;28.58;16.67;;;;;;;2.35;100.00;101828.44;5004966;28;20057;-75
2022/12/03 01:29:17;;;;;;;28.42;15.50;;;;;;;2.40;100.00;101847.72;5002856;28;20072;-76
2022/12/03 01:34:27;;;;;;;26.20;15.93;;;;;;;2.43;100.00;101898.00;4999147;28;20629;-76
2022/12/03 01:36:52;;;;;;;28.85;15.85;;;;;;;2.41;100.00;101886.69;5000570;28;20149;-75
2022/12/03 01:39:18;;;;;;;26.50;15.55;;;;;;;1.43;100.00;101749.03;5014186;28;20057;-75
2022/12/03 01:41:45;;;;;;;31.40;15.25;;;;;;;2.53;100.00;101900.31;5004437;28;20048;-75
2022/12/03 01:44:30;;;;;;;30.15;15.38;;;;;;;2.49;100.00;101861.19;4998186;28;20133;-75
2022/12/03 01:47:00;;;;;;;26.92;15.55;;;;;;;2.32;100.00;101881.84;4998760;28;20115;-76
2022/12/03 01:49:34;;;;;;;27.85;16.05;;;;;;;1.98;100.00;101784.94;4999561;28;20058;-76
2022/12/03 01:52:00;;;;;;;24.05;17.27;;;;;;;2.37;100.00;101856.22;4998385;28;20445;-76
2022/12/03 01:54:31;;;;;;;24.60;16.60;;;;;;;2.48;100.00;101878.44;5001102;28;20041;-76
2022/12/03 01:56:57;;;;;;;33.20;16.70;;;;;;;2.48;100.00;101904.34;5004820;28;20054;-75
2022/12/03 01:59:36;;;;;;;46.97;15.73;;;;;;;2.49;100.00;101898.34;4999495;28;20041;-77
2022/12/03 02:02:11;;;;;;;28.67;15.63;;;;;;;1.62;100.00;101745.81;5002076;28;20057;-75
2022/12/03 02:04:37;;;;;;;34.30;17.77;;;;;;;2.58;100.00;101894.50;5000664;28;20062;-75
2022/12/03 02:07:29;;;;;;;31.05;17.17;;;;;;;2.32;100.00;101855.06;5004329;28;20050;-74
2022/12/03 02:09:57;;;;;;;30.05;18.48;;;;;;;2.49;100.00;101887.09;5000724;28;20048;-75
2022/12/03 02:12:32;;;;;;;41.40;21.73;;;;;;;2.08;100.00;101855.47;5003430;28;20408;-75
2022/12/03 02:14:58;;;;;;;29.95;17.85;;;;;;;1.80;100.00;101789.94;5004351;28;20037;-75
2022/12/03 02:17:25;;;;;;;36.35;18.33;;;;;;;2.51;100.00;101893.25;5006355;28;20544;-76
2022/12/03 02:19:51;;;;;;;27.58;16.48;;;;;;;1.78;100.00;101761.41;4999213;28;20593;-76
2022/12/03 02:22:51;;;;;;;33.45;17.90;;;;;;;2.45;100.00;101879.94;5001349;28;20053;-74
2022/12/03 02:25:30;;;;;;;37.83;21.88;;;;;;;2.42;100.00;101883.25;4984440;28;20049;-75
2022/12/03 02:27:57;;;;;;;41.50;18.75;;;;;;;1.65;100.00;101758.91;5004582;28;20128;-75
2022/12/03 02:30:25;;;;;;;41.83;20.90;;;;;;;1.79;100.00;101777.81;4997250;28;20141;-77
2022/12/03 02:32:52;;;;;;;39.97;19.08;;;;;;;1.74;100.00;101766.31;5004892;28;20141;-76
2022/12/03 02:35:21;;;;;;;25.60;17.10;;;;;;;1.81;100.00;101786.56;5007690;28;20070;-75
2022/12/03 02:37:50;;;;;;;39.75;20.73;;;;;;;2.49;100.00;101902.66;5003836;28;20123;-76
2022/12/03 02:40:25;;;;;;;31.77;16.48;;;;;;;1.78;100.00;101768.25;5003032;28;20062;-80
2022/12/03 02:42:55;;;;;;;39.15;19.85;;;;;;;2.54;100.00;101903.78;5003317;28;20367;-77
2022/12/03 02:45:25;;;;;;;39.28;16.23;;;;;;;2.19;100.00;101850.88;4999750;28;20073;-78
2022/12/03 02:47:59;;;;;;;41.05;20.88;;;;;;;1.82;100.00;101784.03;5004099;28;20049;-77
2022/12/03 02:50:32;;;;;;;41.78;17.88;;;;;;;2.24;100.00;101852.03;5023605;28;20041;-76
2022/12/03 02:53:01;;;;;;;34.03;18.20;;;;;;;2.51;100.00;101895.84;4995918;28;20565;-77
2022/12/03 02:55:29;;;;;;;27.88;16.58;;;;;;;2.65;100.00;101907.00;5003065;28;20081;-76
2022/12/03 02:57:55;;;;;;;34.63;18.77;;;;;;;1.91;100.00;101778.50;5004383;28;20045;-76
2022/12/03 03:00:21;;;;;;;32.72;19.48;;;;;;;2.67;100.00;101901.09;5000233;28;20054;-78
2022/12/03 03:02:49;;;;;;;32.10;17.15;;;;;;;2.71;100.00;101913.38;4999306;28;20058;-77
2022/12/03 03:05:19;;;;;;;36.95;18.15;;;;;;;2.36;100.00;101890.69;5002782;28;20056;-77
2022/12/03 03:07:45;;;;;;;35.67;18.85;;;;;;;1.37;100.00;101792.63;5009663;28;20042;-77
2022/12/03 03:10:15;;;;;;;35.08;19.77;;;;;;;1.89;100.00;101894.00;5008451;28;20699;-78
2022/12/03 03:12:41;;;;;;;29.60;17.05;;;;;;;1.92;100.00;101932.09;4999441;28;20050;-79
2022/12/03 03:15:08;;;;;;;30.20;16.95;;;;;;;1.21;100.00;101795.97;4999240;28;20567;-77
2022/12/03 03:17:34;;;;;;;38.38;18.83;;;;;;;2.27;100.00;101904.00;5005800;28;20397;-78
2022/12/03 03:20:01;;;;;;;40.40;18.98;;;;;;;2.36;100.00;101921.75;5003635;28;20042;-78
2022/12/03 03:22:38;;;;;;;33.58;19.02;;;;;;;1.50;100.00;101784.78;5005417;28;20073;-78
2022/12/03 03:25:06;;;;;;;30.65;17.95;;;;;;;1.87;100.00;101803.34;5001715;28;20045;-78
2022/12/03 03:27:32;;;;;;;28.50;16.65;;;;;;;2.34;100.00;101871.56;5004250;28;20074;-78
2022/12/03 03:29:58;;;;;;;33.17;19.70;;;;;;;2.13;100.00;101917.88;5003711;28;20136;-78
2022/12/03 03:32:26;;;;;;;43.05;19.33;;;;;;;2.31;100.00;101899.88;5004294;28;20064;-78
2022/12/03 03:34:52;;;;;;;29.95;17.05;;;;;;;2.16;100.00;101888.66;5006432;28;20061;-77
2022/12/03 03:37:18;;;;;;;37.40;20.70;;;;;;;2.54;100.00;101938.34;5007680;28;20065;-79
2022/12/03 03:39:43;;;;;;;35.08;20.67;;;;;;;1.80;100.00;101803.78;5009632;28;20057;-78
2022/12/03 03:42:09;;;;;;;27.35;17.10;;;;;;;2.41;100.00;101896.13;5010068;28;20042;-79
2022/12/03 03:44:35;;;;;;;32.45;18.40;;;;;;;1.33;100.00;101711.38;5002986;28;20027;-78
2022/12/03 03:47:01;;;;;;;31.08;18.38;;;;;;;2.46;100.00;101915.44;5005786;28;20041;-78
2022/12/03 03:49:27;;;;;;;36.72;20.17;;;;;;;1.83;100.00;101809.13;4996731;28;20053;-77
2022/12/03 03:51:53;;;;;;;32.20;18.88;;;;;;;2.62;100.00;101917.16;5007495;28;20054;-75
2022/12/03 03:54:19;;;;;;;34.35;19.90;;;;;;;2.60;100.00;101923.97;5006673;28;20060;-78
2022/12/03 03:56:44;;;;;;;34.50;18.10;;;;;;;2.66;100.00;101932.97;5005823;28;20065;-77
2022/12/03 03:59:12;;;;;;;36.72;19.15;;;;;;;2.48;100.00;101913.78;5009989;28;20037;-77
2022/12/03 04:01:38;;;;;;;35.10;18.58;;;;;;;2.41;100.00;101912.56;5003919;28;20184;-75
2022/12/03 04:04:09;;;;;;;36.50;19.42;;;;;;;2.56;100.00;101924.63;5006940;28;20347;-77
2022/12/03 04:06:35;;;;;;;41.70;20.20;;;;;;;2.55;100.00;101921.09;5003460;28;20077;-75
2022/12/03 04:09:00;;;;;;;35.58;19.02;;;;;;;2.24;100.00;101890.88;5002737;28;20054;-77
2022/12/03 04:14:10;;;;;;;33.92;17.65;;;;;;;2.41;100.00;101909.06;5006200;28;20068;-77
2022/12/03 04:16:35;;;;;;;28.88;16.92;;;;;;;2.02;100.00;101830.91;5007687;28;20054;-75
2022/12/03 04:19:01;;;;;;;38.70;19.90;;;;;;;2.46;100.00;101921.50;5004939;28;20050;-75
2022/12/03 04:24:11;;;;;;;32.03;18.38;;;;;;;2.22;100.00;101865.69;5007988;28;20351;-78
2022/12/03 04:29:21;;;;;;;30.65;17.70;;;;;;;2.50;100.00;101927.72;4994567;28;20088;-76
2022/12/03 04:37:15;;;;;;;32.90;18.63;;;;;;;2.70;100.00;101955.69;5001410;28;20588;-79
2022/12/03 04:39:41;;;;;;;33.72;17.63;;;;;;;2.38;100.00;101881.28;5004840;28;20054;-78
2022/12/03 04:42:06;;;;;;;27.70;17.63;;;;;;;2.15;100.00;101848.91;5001996;28;20049;-79
2022/12/03 04:44:34;;;;;;;31.95;18.17;;;;;;;1.81;100.00;101799.50;5003960;28;20065;-80
2022/12/03 04:47:13;;;;;;;35.53;19.30;;;;;;;2.60;100.00;101942.09;5003998;28;20061;-79
2022/12/03 04:49:45;;;;;;;31.20;16.45;;;;;;;2.68;100.00;101928.78;5004365;28;20132;-80
2022/12/03 04:52:13;;;;;;;32.20;17.42;;;;;;;2.71;100.00;101953.97;5003004;28;20478;-79
2022/12/03 04:54:39;;;;;;;34.83;19.55;;;;;;;2.67;100.00;101954.59;5003863;28;20050;-75
2022/12/03 04:57:06;;;;;;;26.77;17.10;;;;;;;2.03;100.00;101837.84;5001322;28;20132;-76
2022/12/03 04:59:32;;;;;;;35.47;20.75;;;;;;;2.60;100.00;101932.66;5004796;28;20473;-77
2022/12/03 05:01:57;;;;;;;35.28;19.63;;;;;;;2.75;100.00;101956.81;5002746;28;20160;-78
2022/12/03 05:04:23;;;;;;;40.05;18.58;;;;;;;2.72;100.00;101951.47;5002731;28;20563;-76
2022/12/03 05:06:49;;;;;;;29.15;15.93;;;;;;;2.39;100.00;101890.88;5000893;28;20050;-76
2022/12/03 05:09:15;;;;;;;29.90;17.23;;;;;;;1.76;100.00;101795.75;5001003;28;20053;-74
2022/12/03 05:11:41;;;;;;;27.60;16.42;;;;;;;2.71;100.00;101952.25;5002130;28;20045;-76
2022/12/03 05:14:07;;;;;;;40.63;21.73;;;;;;;1.82;100.00;101803.84;5005812;28;20041;-75
2022/12/03 05:16:32;;;;;;;35.05;18.77;;;;;;;1.98;100.00;101816.88;5001873;28;20065;-77
2022/12/03 05:18:58;;;;;;;34.53;16.17;;;;;;;2.55;100.00;101931.47;5002841;28;20046;-77
2022/12/03 05:21:24;;;;;;;35.40;18.15;;;;;;;1.91;100.00;101817.34;5003704;28;20054;-78
2022/12/03 05:23:49;;;;;;;35.72;17.20;;;;;;;1.68;100.00;101813.41;5000833;28;20387;-77
2022/12/03 05:26:15;;;;;;;37.35;18.08;;;;;;;2.63;100.00;101961.31;5000158;28;20052;-77
2022/12/03 05:28:40;;;;;;;33.45;21.63;;;;;;;1.62;100.00;101857.94;5004375;28;20058;-78
2022/12/03 05:31:06;;;;;;;34.53;18.02;;;;;;;1.71;100.00;101825.63;5002003;28;20053;-79
2022/12/03 05:33:31;;;;;;;28.23;16.98;;;;;;;1.67;100.00;101832.34;4999792;28;20423;-77
2022/12/03 05:35:57;;;;;;;26.30;17.50;;;;;;;2.63;100.00;101966.50;4998673;28;20054;-77
2022/12/03 05:38:23;;;;;;;30.17;16.42;;;;;;;1.90;100.00;101826.81;4996144;28;20094;-78
2022/12/03 05:40:48;;;;;;;34.22;18.55;;;;;;;1.96;100.00;101861.59;5016120;28;20050;-75
2022/12/03 05:43:14;;;;;;;35.60;18.50;;;;;;;2.06;100.00;101875.19;5003700;28;20085;-77
2022/12/03 05:45:41;;;;;;;33.13;19.85;;;;;;;2.11;100.00;101872.84;5000421;28;20107;-78
2022/12/03 05:48:10;;;;;;;26.95;16.45;;;;;;;2.01;100.00;101860.16;5001234;28;20129;-76
2022/12/03 05:50:38;;;;;;;37.65;18.83;;;;;;;2.01;100.00;101967.19;5000281;28;20437;-76
2022/12/03 05:53:05;;;;;;;31.88;18.08;;;;;;;1.57;100.00;101876.53;5001265;28;20944;-76
2022/12/03 05:55:31;;;;;;;33.75;16.40;;;;;;;1.43;100.00;101857.63;4998666;28;20062;-79
2022/12/03 05:57:56;;;;;;;39.25;22.67;;;;;;;2.27;100.00;102006.69;5002356;28;20104;-78
2022/12/03 06:00:25;;;;;;;39.78;20.92;;;;;;;2.55;100.00;101983.28;4998450;28;20045;-77
2022/12/03 06:02:51;;;;;;;36.67;19.42;;;;;;;2.48;100.00;101963.00;5000675;28;20135;-77
2022/12/03 06:05:20;;;;;;;29.88;19.73;;;;;;;2.64;100.00;101998.47;5007106;28;20065;-78
2022/12/03 06:07:50;;;;;;;29.50;18.73;;;;;;;2.01;100.00;101874.00;4997772;28;20046;-77
2022/12/03 06:10:22;;;;;;;36.22;17.50;;;;;;;1.96;100.00;101872.84;5002531;28;20124;-77
2022/12/03 06:12:47;;;;;;;28.42;18.35;;;;;;;2.51;100.00;101979.66;5001311;28;20115;-77
2022/12/03 06:15:14;;;;;;;35.33;21.10;;;;;;;2.54;100.00;102010.03;5002221;28;20042;-78
2022/12/03 06:17:40;;;;;;;38.53;20.88;;;;;;;2.46;100.00;102006.09;5003655;28;20042;-78
2022/12/03 06:20:07;;;;;;;36.75;21.38;;;;;;;1.85;100.00;101889.44;5000196;28;20041;-77
2022/12/03 06:22:33;;;;;;;40.60;21.80;;;;;;;2.60;100.00;101986.16;5002549;28;20052;-80
2022/12/03 06:24:58;;;;;;;32.38;19.13;;;;;;;2.47;100.00;101989.75;4997461;28;20054;-79
2022/12/03 06:27:24;;;;;;;39.53;20.40;;;;;;;2.53;100.00;101992.69;5000620;28;20057;-79
2022/12/03 06:29:49;;;;;;;33.10;18.98;;;;;;;2.18;100.00;101972.47;4999966;28;20057;-80
2022/12/03 06:32:15;;;;;;;41.35;20.63;;;;;;;2.70;100.00;102014.41;5002912;28;20616;-77
2022/12/03 06:34:40;;;;;;;32.67;18.63;;;;;;;1.69;100.00;101864.38;4998237;28;20050;-78
2022/12/03 06:37:05;;;;;;;31.38;17.80;;;;;;;1.96;100.00;101991.03;4999624;28;20592;-77
2022/12/03 06:39:31;;;;;;;30.90;18.70;;;;;;;1.80;100.00;101880.50;4998922;28;20054;-77
2022/12/03 06:41:56;;;;;;;39.40;21.92;;;;;;;1.95;100.00;101884.00;4997054;28;20058;-79
2022/12/03 06:44:22;;;;;;;42.10;20.45;;;;;;;2.30;100.00;102023.31;4998671;28;20030;-77
2022/12/03 06:46:47;;;;;;;38.03;19.50;;;;;;;1.49;100.00;101883.84;4999660;28;20049;-77
2022/12/03 06:49:13;;;;;;;31.55;19.20;;;;;;;2.53;100.00;102031.56;4996038;28;20080;-79
2022/12/03 06:51:38;;;;;;;35.28;18.73;;;;;;;2.19;100.00;102033.84;5000912;28;20452;-77
2022/12/03 06:54:04;;;;;;;32.60;17.90;;;;;;;1.69;100.00;101869.53;4998081;28;20779;-77
2022/12/03 06:56:30;;;;;;;39.28;20.55;;;;;;;2.48;100.00;102041.66;5001836;28;21094;-77
2022/12/03 06:58:56;;;;;;;40.10;20.42;;;;;;;2.48;100.00;102030.38;5000947;28;20087;-76
2022/12/03 07:01:22;;;;;;;50.88;21.08;;;;;;;1.85;100.00;101913.63;4994420;28;20062;-75
2022/12/03 07:03:47;;;;;;;54.33;22.77;;;;;;;1.42;100.00;101936.91;5015998;28;20490;-75
2022/12/03 07:06:13;;;;;;;35.33;19.15;;;;;;;2.15;100.00;102037.91;4994573;28;20057;-75
2022/12/03 07:08:39;;;;;;;41.72;21.08;;;;;;;1.67;100.00;101938.41;4999526;28;20482;-75
2022/12/03 07:11:29;;;;;;;38.60;21.80;;;;;;;2.59;100.00;102039.69;5000528;28;20038;-75
2022/12/03 07:13:50;;;;;;;37.38;21.00;;;;;;;1.93;100.00;101915.78;5000141;28;20076;-76
2022/12/03 07:16:16;;;;;;;32.72;22.00;;;;;;;2.13;100.00;101979.09;4997491;28;20490;-76
2022/12/03 07:18:41;;;;;;;39.00;22.00;;;;;;;2.80;100.00;102046.91;4998570;28;20498;-76
2022/12/03 07:21:06;;;;;;;36.85;20.80;;;;;;;2.45;100.00;101971.50;5001959;28;20640;-75
2022/12/03 07:23:32;;;;;;;43.00;21.10;;;;;;;2.25;100.00;102009.22;4999106;28;20041;-77
2022/12/03 07:25:57;;;;;;;37.42;20.40;;;;;;;2.48;100.00;102049.44;5004112;28;20050;-77
2022/12/03 07:28:23;;;;;;;41.22;17.92;;;;;;;2.53;100.00;102048.00;5002704;28;20049;-76
2022/12/03 07:30:48;;;;;;;31.27;18.00;;;;;;;2.49;100.00;102001.97;5003119;28;20058;-78
2022/12/03 07:33:14;;;;;;;33.15;18.13;;;;;;;2.79;100.00;102056.41;4996520;28;20057;-78
2022/12/03 07:35:39;;;;;;;35.17;21.60;;;;;;;2.73;100.00;102064.69;4997831;28;20053;-78
2022/12/03 07:38:05;;;;;;;36.97;18.63;;;;;;;2.62;100.00;102059.69;4998080;28;20041;-77
2022/12/03 07:40:30;;;;;;;41.67;19.45;;;;;;;1.79;100.00;101909.78;4998265;28;20066;-76
2022/12/03 07:42:56;;;;;;;38.50;22.80;;;;;;;2.51;100.00;102051.31;5000164;28;20050;-77
2022/12/03 07:45:21;;;;;;;38.45;21.35;;;;;;;1.94;100.00;101914.97;4994040;28;20517;-75
2022/12/03 07:47:46;;;;;;;33.20;20.83;;;;;;;2.50;100.00;101990.78;5000142;28;21485;-79
2022/12/03 07:50:12;;;;;;;33.80;20.08;;;;;;;2.90;100.00;102062.19;4999800;28;20405;-77
2022/12/03 07:52:37;;;;;;;39.58;20.35;;;;;;;2.71;100.00;102068.00;4999913;28;20749;-77
2022/12/03 07:55:03;;;;;;;47.97;22.10;;;;;;;2.62;100.00;102020.81;4988453;28;20069;-77
2022/12/03 07:57:29;;;;;;;33.80;17.98;;;;;;;1.90;100.00;101995.03;4994238;28;20053;-76
2022/12/03 07:59:54;;;;;;;47.58;23.25;;;;;;;2.25;100.00;102079.13;5005369;28;20053;-77
2022/12/03 08:02:20;;;;;;;41.65;20.10;;;;;;;1.90;100.00;102074.38;4995037;28;20026;-76
2022/12/03 08:04:48;;;;;;;42.05;22.40;;;;;;;2.26;100.00;102073.13;5001301;28;20772;-78
2022/12/03 08:07:14;;;;;;;58.78;23.83;;;;;;;1.79;100.00;101970.19;5004266;28;20046;-78
2022/12/03 08:09:40;;;;;;;48.13;21.20;;;;;;;1.51;100.00;101943.44;5004120;28;20715;-77
2022/12/03 08:12:16;;;;;;;46.85;21.23;;;;;;;2.54;100.00;102057.53;5001272;28;20045;-77
2022/12/03 08:14:41;;;;;;;48.13;21.38;;;;;;;1.98;100.00;101966.13;4999275;28;20615;-79
2022/12/03 08:17:17;;;;;;;53.38;23.38;;;;;;;1.41;100.00;101924.78;5004809;28;20091;-78
2022/12/03 08:19:45;;;;;;;49.50;25.77;;;;;;;1.67;100.00;101943.59;5007230;28;20038;-76
2022/12/03 08:22:15;;;;;;;47.65;25.15;;;;;;;2.88;100.00;102092.31;5005917;28;20498;-77
2022/12/03 08:24:41;;;;;;;48.40;22.95;;;;;;;2.96;100.00;102063.44;5003781;28;20096;-79
2022/12/03 08:27:17;;;;;;;39.42;20.42;;;;;;;2.50;100.00;102098.72;5001431;28;20368;-76
2022/12/03 08:29:43;;;;;;;38.28;20.27;;;;;;;1.57;100.00;101947.31;5002295;28;20131;-77
2022/12/03 08:32:10;;;;;;;43.38;24.55;;;;;;;2.36;100.00;102074.56;5006806;28;20088;-76
2022/12/03 08:34:41;;;;;;;42.60;22.25;;;;;;;2.86;100.00;102081.00;5005960;28;20058;-77
2022/12/03 08:37:17;;;;;;;52.13;25.30;;;;;;;2.36;100.00;101975.25;5004859;28;20052;-77
2022/12/03 08:39:47;;;;;;;62.42;24.60;;;;;;;1.74;100.00;101953.50;5001286;28;20109;-76
2022/12/03 08:42:40;;;;;;;47.08;22.95;;;;;;;1.75;100.00;101939.75;5006587;28;20053;-77
2022/12/03 08:45:28;;;;;;;44.75;24.08;;;;;;;3.00;100.00;102071.38;5003985;28;20145;-76
2022/12/03 08:47:58;;;;;;;43.65;20.65;;;;;;;2.78;100.00;102071.84;5004385;28;20050;-77
2022/12/03 08:50:34;;;;;;;35.75;18.83;;;;;;;2.26;100.00;101929.81;5004216;28;20045;-76
2022/12/03 08:53:22;;;;;;;37.50;23.88;;;;;;;3.09;100.00;102075.44;4998359;28;20054;-76
2022/12/03 08:55:52;;;;;;;40.35;23.73;;;;;;;2.04;100.00;101940.63;5003215;28;20072;-77
2022/12/03 08:58:26;;;;;;;48.33;23.52;;;;;;;2.17;100.00;102077.75;4993785;28;20065;-77
2022/12/03 09:01:18;;;;;;;44.45;23.30;;;;;;;2.53;100.00;102035.03;5002233;28;20047;-81
2022/12/03 09:03:49;;;;;;;37.20;20.70;;;;;;;3.11;100.00;102079.00;4995988;28;20521;-75
2022/12/03 09:06:15;;;;;;;37.35;22.55;;;;;;;2.52;100.00;102014.22;4998163;28;20062;-76
2022/12/03 09:08:41;;;;;;;44.90;24.52;;;;;;;2.73;100.00;102061.22;4998885;28;20148;-77
2022/12/03 09:11:06;;;;;;;49.30;24.17;;;;;;;3.16;100.00;102067.19;5003770;28;20058;-81
2022/12/03 09:13:32;;;;;;;39.80;20.92;;;;;;;2.46;100.00;102032.91;4999964;28;20053;-77
2022/12/03 09:15:57;;;;;;;47.53;22.45;;;;;;;3.04;100.00;102065.56;5001881;28;20199;-78
2022/12/03 09:18:22;;;;;;;46.90;24.67;;;;;;;2.73;100.00;101986.06;5000961;28;20045;-78
2022/12/03 09:20:48;;;;;;;40.00;22.75;;;;;;;3.32;100.00;102060.25;5000979;28;20061;-77
2022/12/03 09:23:13;;;;;;;41.50;23.73;;;;;;;3.20;100.00;102031.03;5007603;28;20485;-78
2022/12/03 09:25:39;;;;;;;46.00;24.63;;;;;;;3.36;100.00;102057.03;5002650;28;20049;-78
2022/12/03 09:28:04;;;;;;;39.17;22.92;;;;;;;3.07;100.00;102001.84;5006922;28;20805;-82
2022/12/03 09:30:30;;;;;;;47.35;25.10;;;;;;;3.42;100.00;102047.00;5006208;28;20077;-77
2022/12/03 09:32:56;;;;;;;38.55;23.92;;;;;;;3.10;100.00;101972.56;4998525;28;20137;-77
2022/12/03 09:35:21;;;;;;;41.35;24.27;;;;;;;3.38;100.00;102035.53;5003486;28;20035;-79
2022/12/03 09:37:47;;;;;;;44.80;30.35;;;;;;;2.35;100.00;101900.97;5005604;28;20034;-77
2022/12/03 09:40:13;;;;;;;61.83;30.25;;;;;;;2.51;100.00;101901.91;4999752;28;20081;-76
2022/12/03 09:42:39;;;;;;;47.67;24.88;;;;;;;2.98;100.00;102022.06;5002758;28;20159;-76
2022/12/03 09:45:12;;;;;;;48.30;28.65;;;;;;;2.93;100.00;102044.25;5001719;28;20520;-76
2022/12/03 09:47:48;;;;;;;43.72;25.00;;;;;;;2.04;100.00;101951.84;5005291;28;20053;-75
2022/12/03 09:50:25;;;;;;;54.30;24.45;;;;;;;2.58;100.00;102035.31;5003426;28;20191;-77
2022/12/03 09:52:55;;;;;;;50.35;28.65;;;;;;;2.04;100.00;101925.09;5000129;28;20053;-76
2022/12/03 09:55:25;;;;;;;51.78;27.60;;;;;;;2.93;100.00;102041.66;5005753;28;20073;-77
2022/12/03 09:57:51;;;;;;;49.40;25.05;;;;;;;1.83;100.00;101907.47;5000686;28;20133;-77
2022/12/03 10:00:20;;;;;;;48.00;27.17;;;;;;;2.25;100.00;101910.78;4998243;28;20108;-74
2022/12/03 10:02:47;;;;;;;37.00;24.50;;;;;;;2.31;100.00;101898.19;5000044;28;20438;-77
2022/12/03 10:05:14;;;;;;;61.47;25.50;;;;;;;3.16;100.00;102038.66;5005918;28;20117;-76
2022/12/03 10:08:04;;;;;;;49.22;24.65;;;;;;;3.16;100.00;102020.50;4983635;28;20061;-76
2022/12/03 10:10:30;;;;;;;43.15;23.08;;;;;;;3.26;100.00;102040.06;5004210;28;20050;-76
2022/12/03 10:12:56;;;;;;;89.40;25.45;;;;;;;3.03;100.00;101999.88;5005788;28;20049;-76
2022/12/03 10:15:22;;;;;;;46.53;23.52;;;;;;;2.55;100.00;101928.88;5002029;28;20044;-76
2022/12/03 10:17:50;;;;;;;39.22;26.75;;;;;;;3.15;100.00;102031.66;5000586;28;20053;-77
2022/12/03 10:20:18;;;;;;;50.03;25.35;;;;;;;2.79;100.00;101941.47;5016709;28;20072;-75
2022/12/03 10:22:44;;;;;;;46.20;24.02;;;;;;;2.83;100.00;102045.38;5018331;28;20093;-82
2022/12/03 10:25:11;;;;;;;56.33;25.35;;;;;;;3.11;100.00;102044.38;5006726;28;20560;-74
2022/12/03 10:27:38;;;;;;;44.20;23.67;;;;;;;3.15;100.00;102023.00;4997824;28;20066;-75
2022/12/03 10:30:14;;;;;;;40.20;23.30;;;;;;;2.29;100.00;101910.19;5003449;28;20130;-76
2022/12/03 10:32:43;;;;;;;55.72;26.13;;;;;;;2.77;100.00;101967.28;5006951;28;20042;-74
2022/12/03 10:35:14;;;;;;;56.78;25.55;;;;;;;2.92;100.00;102039.84;5001723;28;20470;-75
2022/12/03 10:37:58;;;;;;;44.72;24.85;;;;;;;2.48;100.00;102038.16;4994676;28;20162;-75
2022/12/03 10:40:25;;;;;;;;;;;;;;;3.07;100.00;102042.44;5002000;28;20072;-76
2022/12/03 10:42:50;;;;;;;57.30;22.70;;;;;;;2.89;100.00;102039.69;5000354;28;19929;-73
2022/12/03 10:45:22;;;;;;;55.35;26.02;;;;;;;2.73;100.00;102030.13;4990160;28;20076;-75
2022/12/03 10:48:24;;;;;;;38.85;20.60;;;;;;;2.20;100.00;101888.94;5004343;28;20041;-73
2022/12/03 10:50:55;;;;;;;44.42;22.60;;;;;;;2.69;100.00;101955.56;4994680;28;20073;-76
2022/12/03 10:53:28;;;;;;;44.13;24.40;;;;;;;2.66;100.00;101939.88;4997383;28;20679;-78
2022/12/03 10:55:58;;;;;;;47.85;28.08;;;;;;;2.81;100.00;101997.78;5001946;28;20092;-77
2022/12/03 10:58:27;;;;;;;39.60;21.58;;;;;;;1.81;100.00;101916.84;5015595;28;20058;-78
2022/12/03 11:00:55;;;;;;;50.47;25.05;;;;;;;2.10;100.00;101925.44;4990240;28;20108;-76
2022/12/03 11:03:24;;;;;;;49.33;26.45;;;;;;;3.12;100.00;102047.06;5002110;28;20084;-75
2022/12/03 11:05:51;;;;;;;48.33;25.95;;;;;;;2.82;100.00;101991.75;5005079;28;20049;-76
2022/12/03 11:08:23;;;;;;;51.05;26.50;;;;;;;2.06;100.00;101990.75;5007782;28;20038;-78
2022/12/03 11:11:07;;;;;;;53.10;21.85;;;;;;;1.79;100.00;101946.03;5002243;28;20050;-77
2022/12/03 11:13:33;;;;;;;56.50;29.55;;;;;;;2.77;100.00;102047.63;5005360;28;20502;-76
2022/12/03 11:15:59;;;;;;;55.53;25.60;;;;;;;2.67;100.00;101977.91;5006584;28;20050;-75
2022/12/03 11:18:37;;;;;;;49.28;23.58;;;;;;;3.13;100.00;102041.06;4995614;28;20121;-79
2022/12/03 11:21:04;;;;;;;56.75;23.77;;;;;;;3.24;100.00;102048.56;5004577;28;20042;-77
2022/12/03 11:23:45;;;;;;;62.20;28.27;;;;;;;3.13;100.00;102040.16;4999937;28;20030;-78
2022/12/03 11:26:37;;;;;;;49.28;25.80;;;;;;;3.05;100.00;102031.97;5002406;28;20030;-79
2022/12/03 11:29:11;;;;;;;46.05;23.45;;;;;;;3.20;100.00;102029.31;5005231;28;20065;-75
2022/12/03 11:31:47;;;;;;;50.03;25.55;;;;;;;2.44;100.00;102039.69;5001622;28;20050;-76